CMA CGM Musca — 2CAC8 — position and weather

sailwx.info

Track history (hours):
 
Tides and Currents Weather Stations Pressure Air Temp Water Temp Dewpoint Dewpoint Depression Visibility Wind Speed Wind Dir Waves Ship Positions

CMA CGM Musca

Last reported at 2018-Feb-18 18:53 UTC. Time now 2018-Feb-23 20:09 UTC.
Position N 01°13' E 103°27'.

Length 347 m; draft 13.7 m.

Type: Ship (hazmat cat A). MMSI: 235070914.

Date/timePositionNaut miles runAvg speedWind from/ knotsBaromVisibWave heightAir tempDewpointWater temp
2018-Feb-18 18:53N 01°13' E 103°27'712.0
2018-Feb-18 18:20N 01°12' E 103°33'310.3
2018-Feb-18 18:00N 01°12' E 103°36'4 7.6
2018-Feb-18 17:26N 01°13' E 103°40'4 9.3
2018-Feb-18 16:57N 01°16' E 103°44'3 6.0
2018-Feb-18 16:30N 01°15' E 103°47'1 1.9
2018-Feb-18 16:00N 01°16' E 103°47'0 0.0
2018-Feb-18 09:21N 01°16' E 103°47'0 0.0
2018-Feb-18 07:02N 01°16' E 103°47'0 0.0
2018-Feb-18 06:53N 01°16' E 103°47'0 0.0
2018-Feb-18 06:20N 01°16' E 103°47'0 0.0
2018-Feb-18 05:55N 01°16' E 103°47'0 0.0
2018-Feb-18 05:25N 01°16' E 103°47'0 0.0
2018-Feb-18 04:49N 01°16' E 103°47'0 0.0
2018-Feb-18 04:29N 01°16' E 103°47'0 0.0
2018-Feb-18 03:09N 01°16' E 103°47'0 0.0
2018-Feb-18 01:23N 01°16' E 103°47'0 0.0
2018-Feb-18 00:59N 01°16' E 103°47'0 0.0
2018-Feb-17 23:47N 01°16' E 103°47'0 0.0
2018-Feb-17 23:29N 01°16' E 103°47'0 0.0
2018-Feb-17 21:58N 01°16' E 103°47'0 0.0
2018-Feb-17 21:16N 01°16' E 103°47'0 0.0
2018-Feb-17 20:58N 01°16' E 103°47'0 0.0
2018-Feb-17 13:42N 01°16' E 103°47'0 0.0
2018-Feb-17 13:24N 01°16' E 103°47'0 0.0
2018-Feb-17 12:55N 01°16' E 103°47'0 0.0
2018-Feb-17 11:28N 01°16' E 103°47'0 0.0
2018-Feb-17 10:40N 01°16' E 103°47'0 0.0
2018-Feb-17 10:22N 01°16' E 103°47'0 0.0
2018-Feb-17 10:00N 01°16' E 103°47'1 1.3
2018-Feb-17 09:28N 01°15' E 103°48'1 1.7
2018-Feb-17 08:59N 01°14' E 103°47'0 0.1
2018-Feb-17 08:27N 01°14' E 103°47'0 0.0
2018-Feb-17 07:57N 01°14' E 103°47'0 0.3
2018-Feb-17 07:30N 01°14' E 103°47'2 4.3
2018-Feb-17 07:00N 01°13' E 103°49'4 7.1
2018-Feb-17 06:30N 01°13' E 103°52'3 5.7
2018-Feb-17 06:00N 01°14' E 103°55'1 2.4
2018-Feb-17 05:27N 01°14' E 103°56'3 6.7
2018-Feb-17 05:00N 01°15' E 103°59'810.5
2018-Feb-17 04:16N 01°17' E 104°07'411.2
2018-Feb-17 03:53N 01°17' E 104°11'  
2018-Feb-12 13:39N 23°15' E 117°38'718.7
2018-Feb-12 13:15N 23°20' E 117°44'518.5
2018-Feb-12 12:59N 23°23' E 117°48'  
Track history (hours):
 
Tides and Currents Weather Stations Pressure Air Temp Water Temp Dewpoint Dewpoint Depression Visibility Wind Speed Wind Dir Waves Ship Positions

CMA CGM Musca

Last reported at 2018-Feb-18 18:53 UTC. Time now 2018-Feb-23 20:09 UTC.
Position N 01°13' E 103°27'.

Length 347 m; draft 13.7 m.

Type: Ship (hazmat cat A). MMSI: 235070914.

Date/timePositionNaut miles runAvg speedWind from/ knotsBaromVisibWave heightAir tempDewpointWater temp
2018-Feb-18 18:53N 01°13' E 103°27'712.0
2018-Feb-18 18:20N 01°12' E 103°33'310.3
2018-Feb-18 18:00N 01°12' E 103°36'4 7.6
2018-Feb-18 17:26N 01°13' E 103°40'4 9.3
2018-Feb-18 16:57N 01°16' E 103°44'3 6.0
2018-Feb-18 16:30N 01°15' E 103°47'1 1.9
2018-Feb-18 16:00N 01°16' E 103°47'0 0.0
2018-Feb-18 09:21N 01°16' E 103°47'0 0.0
2018-Feb-18 07:02N 01°16' E 103°47'0 0.0
2018-Feb-18 06:53N 01°16' E 103°47'0 0.0
2018-Feb-18 06:20N 01°16' E 103°47'0 0.0
2018-Feb-18 05:55N 01°16' E 103°47'0 0.0
2018-Feb-18 05:25N 01°16' E 103°47'0 0.0
2018-Feb-18 04:49N 01°16' E 103°47'0 0.0
2018-Feb-18 04:29N 01°16' E 103°47'0 0.0
2018-Feb-18 03:09N 01°16' E 103°47'0 0.0
2018-Feb-18 01:23N 01°16' E 103°47'0 0.0
2018-Feb-18 00:59N 01°16' E 103°47'0 0.0
2018-Feb-17 23:47N 01°16' E 103°47'0 0.0
2018-Feb-17 23:29N 01°16' E 103°47'0 0.0
2018-Feb-17 21:58N 01°16' E 103°47'0 0.0
2018-Feb-17 21:16N 01°16' E 103°47'0 0.0
2018-Feb-17 20:58N 01°16' E 103°47'0 0.0
2018-Feb-17 13:42N 01°16' E 103°47'0 0.0
2018-Feb-17 13:24N 01°16' E 103°47'0 0.0
2018-Feb-17 12:55N 01°16' E 103°47'0 0.0
2018-Feb-17 11:28N 01°16' E 103°47'0 0.0
2018-Feb-17 10:40N 01°16' E 103°47'0 0.0
2018-Feb-17 10:22N 01°16' E 103°47'0 0.0
2018-Feb-17 10:00N 01°16' E 103°47'1 1.3
2018-Feb-17 09:28N 01°15' E 103°48'1 1.7
2018-Feb-17 08:59N 01°14' E 103°47'0 0.1
2018-Feb-17 08:27N 01°14' E 103°47'0 0.0
2018-Feb-17 07:57N 01°14' E 103°47'0 0.3
2018-Feb-17 07:30N 01°14' E 103°47'2 4.3
2018-Feb-17 07:00N 01°13' E 103°49'4 7.1
2018-Feb-17 06:30N 01°13' E 103°52'3 5.7
2018-Feb-17 06:00N 01°14' E 103°55'1 2.4
2018-Feb-17 05:27N 01°14' E 103°56'3 6.7
2018-Feb-17 05:00N 01°15' E 103°59'810.5
2018-Feb-17 04:16N 01°17' E 104°07'411.2
2018-Feb-17 03:53N 01°17' E 104°11'  
2018-Feb-12 13:39N 23°15' E 117°38'718.7
2018-Feb-12 13:15N 23°20' E 117°44'518.5
2018-Feb-12 12:59N 23°23' E 117°48'  

Dump ship's entire track history